Ann Arbor, MI

2:44 AM EST on February 21, 2017 (GMT -0500)
Washington and Crest | | Change Station

Elev 879 ft 42.28 °N, 83.77 °W | Updated 15 seconds ago

Partly Cloudy
Partly Cloudy
37.9 °F
Feels Like 38 °F
N
0.0
Wind Variable Wind from NE
Gusts 1.0 mph

Today
High -- | Low -- °F
--% Chance of Precip.
Yesterday
High -- | Low -- °F
Precip. -- in
Pressure 30.07 in
Visibility 10.0 miles
Clouds Clear
Windchill 38 °F
Dew Point 32 °F
Humidity 77%
Rainfall 0.00 in
Snow Depth Not available.
7:22 AM 6:15 PM
Waning Crescent, 27% visible
METAR KARB 210653Z AUTO 10003KT 10SM CLR 03/M01 A3005 RMK AO2 SLP181 T00281011 $
Pressure 30.07 in
Visibility 10.0 miles
Clouds Clear
Windchill 38 °F
Dew Point 32 °F
Humidity 77%
Rainfall 0.00 in
Snow Depth Not available.
7:22 AM 6:15 PM
Waning Crescent, 27% visible
METAR KARB 210653Z AUTO 10003KT 10SM CLR 03/M01 A3005 RMK AO2 SLP181 T00281011 $

Get Your Daily Forecast Email!

Thanks for signing up!

Be on the lookout for a verification email in your inbox.

You'll start receiving the daily forecast at 8 AM.

×

10-Day Weather Forecast

Almanac

Astronomy

Feb. 21, 2017 Rise Set
Actual Time
Civil Twilight
Nautical Twilight
Astronomical Twilight
Moon
Length of Visible Light
Length of Day
Tomorrow will be .
, % of the Moon is Illuminated

Today's Extremes

State Highs State Lows

Community

WunderPhotos

Upload Photos

1,962,540 photos uploaded!

WunderBlog® & News

Nearby

Air Quality

  Air Quality AQ Index Pollutant
Not available.

Snow Depth

Station Depth Elevation

Earthquake Activity

City Distance Mag. Time & Date
Minimum magnitude displayed is 2.5.

Coastal Water Temperatures

Place Temperature

Stations

Nearby Weather Stations

Station Location Temp. Windchill Dew Point Humidity Wind Precip. Elev Updated Type
                   

Watches & Warnings

There are currently no watches in effect.